createdAt,value
2023-11-21T00:03:20.759Z,2.65
2023-11-21T00:08:22.709Z,2.38
2023-11-21T00:13:24.865Z,2.10
2023-11-21T00:18:29.579Z,2.90
2023-11-21T00:23:31.648Z,2.80
2023-11-21T00:28:34.231Z,2.63
2023-11-21T00:33:36.765Z,3.17
2023-11-21T00:38:41.417Z,2.28
2023-11-21T00:43:43.855Z,2.42
2023-11-21T00:48:46.740Z,1.95
2023-11-21T00:53:49.577Z,1.15
2023-11-21T00:58:53.945Z,1.35
2023-11-21T01:03:56.984Z,2.00
2023-11-21T01:08:59.635Z,2.50
2023-11-21T01:14:02.314Z,1.63
2023-11-21T01:19:08.988Z,3.50
2023-11-21T01:24:14.965Z,2.60
2023-11-21T01:29:19.544Z,4.60
2023-11-21T01:34:22.225Z,1.52
2023-11-21T01:39:25.362Z,1.90
2023-11-21T01:44:29.805Z,2.03
2023-11-21T01:49:34.891Z,2.63
2023-11-21T01:54:37.972Z,2.25
2023-11-21T01:59:45.268Z,2.03
2023-11-21T02:04:47.785Z,2.40
2023-11-21T02:09:53.498Z,2.13
2023-11-21T02:14:57.079Z,1.30
2023-11-21T02:19:59.824Z,1.85
2023-11-21T02:25:02.353Z,3.28
2023-11-21T02:30:06.369Z,2.22
2023-11-21T02:35:09.615Z,2.15
2023-11-21T02:40:19.303Z,2.17
2023-11-21T02:45:22.915Z,2.15
2023-11-21T02:50:29.085Z,1.70
2023-11-21T02:55:36.342Z,2.22
2023-11-21T03:00:41.514Z,3.45
2023-11-21T03:05:44.199Z,2.17
2023-11-21T03:10:46.715Z,2.47
2023-11-21T03:15:50.046Z,5.05
2023-11-21T03:20:54.386Z,2.40
2023-11-21T03:25:57.043Z,2.65
2023-11-21T03:31:02.744Z,4.95
2023-11-21T03:36:06.493Z,1.67
2023-11-21T03:41:11.404Z,2.05
2023-11-21T03:46:13.712Z,1.90
2023-11-21T03:51:16.309Z,1.92
2023-11-21T03:56:20.755Z,1.67
2023-11-21T04:01:24.067Z,2.00
2023-11-21T04:06:26.991Z,3.83
2023-11-21T04:11:31.397Z,2.08
2023-11-21T04:16:36.030Z,1.08
2023-11-21T04:21:41.907Z,2.10
2023-11-21T04:26:48.619Z,1.92
2023-11-21T04:31:50.882Z,4.55
2023-11-21T04:36:59.385Z,4.25
2023-11-21T04:42:02.234Z,1.98
2023-11-21T04:47:05.976Z,2.78
2023-11-21T04:52:11.490Z,2.55
2023-11-21T04:57:13.859Z,2.30
2023-11-21T05:02:30.566Z,2.75
2023-11-21T05:07:38.696Z,3.10
2023-11-21T05:12:42.489Z,3.17
2023-11-21T05:17:47.312Z,2.88
2023-11-21T05:22:50.103Z,2.03
2023-11-21T05:27:52.431Z,2.30
2023-11-21T05:32:54.702Z,2.08
2023-11-21T05:37:57.623Z,2.17
2023-11-21T05:43:00.470Z,2.35
2023-11-21T05:48:07.512Z,2.70
2023-11-21T05:58:18.245Z,2.60
2023-11-21T06:03:20.715Z,2.60
2023-11-21T06:08:23.318Z,2.72
2023-11-21T06:13:29.193Z,3.17
2023-11-21T06:18:31.784Z,3.13
2023-11-21T06:23:37.057Z,2.88
2023-11-21T06:28:41.732Z,3.22
2023-11-21T06:33:44.352Z,5.55
2023-11-21T06:38:47.244Z,4.20
2023-11-21T06:43:50.910Z,5.72
2023-11-21T06:48:53.600Z,7.28
2023-11-21T06:53:56.148Z,6.45
2023-11-21T06:59:01.491Z,5.63
2023-11-21T07:04:04.814Z,4.95
2023-11-21T07:09:09.562Z,4.68
2023-11-21T07:14:13.432Z,2.80
2023-11-21T07:19:18.611Z,5.45
2023-11-21T07:24:27.298Z,6.57
2023-11-21T07:29:31.150Z,5.53
2023-11-21T07:34:33.760Z,3.33
2023-11-21T07:39:43.357Z,2.40
2023-11-21T07:44:47.707Z,2.08
2023-11-21T07:49:50.071Z,2.10
2023-11-21T07:54:57.468Z,3.90
2023-11-21T08:00:01.062Z,1.88
2023-11-21T08:05:03.632Z,3.53
2023-11-21T08:10:11.758Z,2.42
2023-11-21T08:15:14.156Z,3.15
2023-11-21T08:20:17.620Z,1.75
2023-11-21T08:25:21.716Z,2.92
2023-11-21T08:30:29.244Z,2.97
2023-11-21T08:35:35.647Z,2.28
2023-11-21T08:40:41.556Z,2.05
2023-11-21T08:45:47.207Z,2.17
2023-11-21T08:50:49.743Z,1.88
2023-11-21T08:55:55.186Z,2.00
2023-11-21T09:00:57.862Z,1.33
2023-11-21T09:06:00.863Z,1.25
2023-11-21T09:11:04.011Z,1.58
2023-11-21T09:16:07.113Z,1.38
2023-11-21T09:21:10.148Z,2.65
2023-11-21T09:26:15.642Z,1.73
2023-11-21T09:31:18.527Z,3.63
2023-11-21T09:36:25.596Z,2.50
2023-11-21T09:41:36.374Z,2.08
2023-11-21T09:46:40.891Z,2.35
2023-11-21T09:51:49.617Z,2.13
2023-11-21T09:56:57.673Z,1.35
2023-11-21T10:02:00.147Z,2.47
2023-11-21T10:07:03.758Z,1.50
2023-11-21T10:12:09.571Z,2.13
2023-11-21T10:17:17.656Z,1.50
2023-11-21T10:22:24.631Z,1.80
2023-11-21T10:27:28.815Z,1.20
2023-11-21T10:32:37.340Z,2.33
2023-11-21T10:37:42.456Z,1.75
2023-11-21T10:42:45.051Z,1.25
2023-11-21T10:47:47.484Z,1.02
2023-11-21T10:52:49.846Z,1.67
2023-11-21T10:57:55.572Z,1.00
2023-11-21T11:03:00.449Z,1.70
2023-11-21T11:08:07.900Z,1.77
2023-11-21T11:13:10.627Z,1.33
2023-11-21T11:18:19.061Z,1.30
2023-11-21T11:23:32.444Z,1.88
2023-11-21T11:28:54.536Z,1.00
2023-11-21T11:34:16.328Z,1.58
2023-11-21T11:39:42.962Z,1.70
2023-11-21T11:44:48.766Z,1.55
2023-11-21T11:50:09.746Z,4.25
2023-11-21T11:55:15.052Z,1.30
2023-11-21T12:00:31.720Z,1.40
2023-11-21T12:05:37.292Z,3.60
2023-11-21T12:10:43.929Z,1.30
2023-11-21T12:15:49.234Z,1.23
2023-11-21T12:20:52.393Z,1.30
2023-11-21T12:25:54.712Z,0.98
2023-11-21T12:31:07.852Z,2.08
2023-11-21T12:36:17.268Z,1.65
2023-11-21T12:41:19.252Z,1.60
2023-11-21T12:46:21.801Z,1.65
2023-11-21T12:51:24.125Z,1.38
2023-11-21T12:56:26.705Z,1.20
2023-11-21T13:01:30.664Z,1.30
2023-11-21T13:06:35.537Z,2.92
2023-11-21T13:11:38.536Z,1.08
2023-11-21T13:16:43.420Z,1.17
2023-11-21T13:21:45.317Z,1.27
2023-11-21T13:26:48.239Z,1.20
2023-11-21T13:31:52.077Z,0.75
2023-11-21T13:36:59.651Z,1.02
2023-11-21T13:42:01.507Z,2.35
2023-11-21T13:47:03.686Z,0.90
2023-11-21T13:52:07.759Z,1.00
2023-11-21T13:57:10.907Z,1.25
2023-11-21T14:02:19.673Z,1.25
2023-11-21T14:07:36.743Z,1.65
2023-11-21T14:12:42.363Z,3.38
2023-11-21T14:17:44.317Z,3.55
2023-11-21T14:22:46.618Z,1.10
2023-11-21T14:27:52.109Z,1.50
2023-11-21T14:32:54.428Z,1.40
2023-11-21T14:37:59.810Z,1.20
2023-11-21T14:43:02.736Z,1.92
2023-11-21T14:48:06.738Z,1.08
2023-11-21T14:53:14.455Z,0.88
2023-11-21T14:58:27.813Z,1.25
2023-11-21T15:03:33.686Z,1.10
2023-11-21T15:08:37.840Z,1.50
2023-11-21T15:13:42.762Z,1.13
2023-11-21T15:18:45.281Z,1.88
2023-11-21T15:23:47.694Z,1.17
2023-11-21T15:28:51.725Z,1.25
2023-11-21T15:34:04.622Z,0.50
2023-11-21T15:39:12.346Z,1.70
2023-11-21T15:44:18.061Z,3.67
2023-11-21T15:49:23.869Z,0.67
2023-11-21T15:54:27.445Z,1.48
2023-11-21T15:59:35.522Z,0.65
2023-11-21T16:04:40.698Z,0.60
2023-11-21T16:09:44.529Z,0.90
2023-11-21T16:14:49.092Z,0.22
2023-11-21T16:19:52.368Z,0.60
2023-11-21T16:24:54.847Z,0.90
2023-11-21T16:30:08.163Z,1.60
2023-11-21T16:35:13.511Z,0.55
2023-11-21T16:40:20.523Z,0.63
2023-11-21T16:45:25.030Z,0.65
2023-11-21T16:50:27.613Z,0.88
2023-11-21T16:55:31.132Z,0.50
2023-11-21T17:00:36.334Z,0.50
2023-11-21T17:05:46.629Z,0.60
2023-11-21T17:10:54.306Z,0.90
2023-11-21T17:16:00.832Z,0.80
2023-11-21T17:26:10.375Z,0.60
2023-11-21T17:31:13.127Z,0.80
2023-11-21T17:36:16.629Z,0.95
2023-11-21T17:41:28.560Z,0.85
2023-11-21T17:46:37.587Z,0.70
2023-11-21T17:51:41.076Z,0.88
2023-11-21T17:56:43.369Z,0.60
2023-11-21T18:01:48.104Z,0.90
2023-11-21T18:06:50.825Z,1.70
2023-11-21T18:11:53.440Z,2.38
2023-11-21T18:16:57.163Z,1.10
2023-11-21T18:22:02.511Z,0.70
2023-11-21T18:27:06.090Z,1.10
2023-11-21T18:32:12.713Z,1.55
2023-11-21T18:37:15.620Z,1.00
2023-11-21T18:42:22.181Z,1.45
2023-11-21T18:47:32.203Z,2.75
2023-11-21T18:52:34.582Z,2.05
2023-11-21T18:57:37.022Z,1.50
2023-11-21T19:02:41.160Z,1.40
2023-11-21T19:07:43.793Z,1.73
2023-11-21T19:12:46.185Z,1.90
2023-11-21T19:17:53.281Z,1.10
2023-11-21T19:22:56.981Z,1.40
2023-11-21T19:27:59.829Z,1.42
2023-11-21T19:33:06.854Z,2.00
2023-11-21T19:38:12.660Z,1.52
2023-11-21T19:43:15.785Z,3.75
2023-11-21T19:48:24.415Z,3.65
2023-11-21T19:53:33.699Z,5.32
2023-11-21T19:58:43.420Z,2.92
2023-11-21T20:03:45.971Z,2.05
2023-11-21T20:08:53.064Z,1.33
2023-11-21T20:14:00.281Z,1.77
2023-11-21T20:19:08.823Z,3.08
2023-11-21T20:24:14.621Z,4.30
2023-11-21T20:29:18.552Z,1.67
2023-11-21T20:34:21.237Z,3.35
2023-11-21T20:39:24.333Z,1.88
2023-11-21T20:44:29.060Z,2.17
2023-11-21T20:49:38.807Z,2.65
2023-11-21T20:54:47.890Z,2.63
2023-11-21T20:59:50.416Z,3.03
2023-11-21T21:04:54.296Z,2.40
2023-11-21T21:10:00.417Z,2.75
2023-11-21T21:15:04.410Z,1.83
2023-11-21T21:20:07.461Z,2.85
2023-11-21T21:25:10.441Z,2.15
2023-11-21T21:30:15.859Z,2.10
2023-11-21T21:35:19.775Z,2.33
2023-11-21T21:40:22.204Z,2.40
2023-11-21T21:45:26.989Z,2.78
2023-11-21T21:50:30.972Z,2.35
2023-11-21T21:55:33.792Z,1.70
2023-11-21T22:00:38.131Z,2.10
2023-11-21T22:05:41.743Z,2.10
2023-11-21T22:10:46.907Z,1.85
2023-11-21T22:15:52.169Z,1.70
2023-11-21T22:20:55.816Z,2.03
2023-11-21T22:25:58.345Z,2.28
2023-11-21T22:31:01.256Z,1.90
2023-11-21T22:36:05.048Z,2.13
2023-11-21T22:41:07.569Z,2.08
2023-11-21T22:46:15.778Z,2.22
2023-11-21T22:51:25.370Z,2.22
2023-11-21T22:56:30.834Z,1.80
2023-11-21T23:01:37.348Z,1.45
2023-11-21T23:06:44.626Z,2.15
2023-11-21T23:11:50.731Z,1.23
2023-11-21T23:16:53.996Z,1.38
2023-11-21T23:21:56.446Z,1.05
2023-11-21T23:27:06.506Z,1.60
2023-11-21T23:32:09.230Z,1.38
2023-11-21T23:37:11.671Z,1.55
2023-11-21T23:42:16.385Z,1.27
2023-11-21T23:47:19.193Z,0.68
2023-11-21T23:52:22.998Z,2.85
2023-11-21T23:57:25.391Z,0.75
